Terminal Aerodrome Forecast
Issued by NWS

Home | Current Version | Previous Version | Text Only | Print | Product List | Glossary On
Versions: 1 2 3 4 5 6 7 8 9 10 11 12 13
000
FTUS45 KRIW 290523
TAFJAC
TAF
KJAC 290523Z 2906/3006 01006KT P6SM SCT110
     FM291100 VRB05KT P6SM VCSH SCT070 BKN100
     FM291900 21009KT P6SM VCTS SCT050CB BKN080
     FM300200 VRB06KT P6SM VCSH SCT060 BKN100
      AMD LTD TO CLD VIS AND WIND=

USA.gov is the U.S. government's official web portal to all federal, state and local government web resources and services.